Time;durP1;ratioP1;P1;durP2;ratioP2;P2;SDS_P1;SDS_P2;PMS_P1;PMS_P2;Temp;Humidity;BMP_temperature;BMP_pressure;BME280_temperature;BME280_humidity;BME280_pressure;Samples;Min_cycle;Max_cycle;Signal;HPM_P1;HPM_P2
2022/06/02 00:02:34;;;;;;;;;;;;;;;25.56;41.63;94278.84;4918518;29;6991;-60
2022/06/02 00:05:20;;;;;;;;;;;;;;;25.57;42.73;94274.84;4900112;29;9841;-60
2022/06/02 00:07:56;;;;;;;;;;;;;;;25.56;41.78;94278.09;4920296;29;7341;-60
2022/06/02 00:10:41;;;;;;;;;;;;;;;25.56;42.50;94280.84;4911561;29;7452;-60
2022/06/02 00:13:43;;;;;;;;;;;;;;;25.56;41.70;94272.56;4895332;29;7272;-60
2022/06/02 00:16:30;;;;;;;;;;;;;;;25.54;42.09;94264.84;4993748;28;7252;-60
2022/06/02 00:19:34;;;;;;;;;;;;;;;25.57;42.32;94261.06;4992339;28;7158;-60
2022/06/02 00:22:27;;;;;;;;;;;;;;;25.57;42.01;94263.06;4991102;28;9038;-60
2022/06/02 00:25:31;;;;;;;;;;;;;;;25.56;42.56;94267.81;5005225;28;9330;-60
2022/06/02 00:28:11;;;;;;;;;;;;;;;25.57;41.70;94266.56;5002167;28;7273;-60
2022/06/02 00:30:58;;;;;;;;;;;;;;;25.55;41.79;94258.09;4980073;28;7332;-60
2022/06/02 00:33:28;;;;;;;;;;;;;;;25.55;41.68;94263.59;4986642;28;9535;-60
2022/06/02 00:36:38;;;;;;;;;;;;;;;25.56;41.75;94275.34;4990145;28;8683;-60
2022/06/02 00:39:41;;;;;;;;;;;;;;;25.55;42.28;94271.84;4973177;28;9101;-60
2022/06/02 00:42:51;;;;;;;;;;;;;;;25.56;41.76;94270.56;4892695;29;7192;-60
2022/06/02 00:45:21;;;;;;;;;;;;;;;25.54;42.42;94270.34;4911957;29;7339;-60
2022/06/02 00:48:12;;;;;;;;;;;;;;;25.55;41.64;94268.34;4911644;29;9662;-60
2022/06/02 00:50:57;;;;;;;;;;;;;;;25.55;41.96;94285.63;4913143;29;8953;-60
2022/06/02 00:57:32;;;;;;;;;;;;;;;25.53;42.04;94277.13;4892159;29;9077;-60
2022/06/02 01:00:30;;;;;;;;;;;;;;;25.54;41.45;94275.84;4893674;29;9145;-60
2022/06/02 01:03:14;;;;;;;;;;;;;;;25.53;42.11;94282.63;4877805;29;8665;-60
2022/06/02 01:06:00;;;;;;;;;;;;;;;25.53;41.83;94288.16;4870221;29;7130;-60
2022/06/02 01:08:41;;;;;;;;;;;;;;;25.51;41.64;94296.16;4888525;29;9045;-60
2022/06/02 01:11:19;;;;;;;;;;;;;;;25.51;41.78;94314.69;4874051;29;7182;-60
2022/06/02 01:14:09;;;;;;;;;;;;;;;25.52;42.29;94288.63;4888969;29;7263;-60
2022/06/02 01:16:48;;;;;;;;;;;;;;;25.51;42.26;94289.91;4937101;28;9591;-60
2022/06/02 01:19:45;;;;;;;;;;;;;;;25.50;41.87;94286.41;4974625;28;6972;-60
2022/06/02 01:22:46;;;;;;;;;;;;;;;25.50;41.89;94291.91;4969132;28;9127;-60
2022/06/02 01:25:37;;;;;;;;;;;;;;;25.51;42.44;94292.66;4992994;28;9078;-60
2022/06/02 01:28:03;;;;;;;;;;;;;;;25.49;41.90;94287.66;4992597;28;7752;-60
2022/06/02 01:30:56;;;;;;;;;;;;;;;25.49;41.46;94293.16;4975459;28;9008;-60
2022/06/02 01:34:00;;;;;;;;;;;;;;;25.49;41.57;94290.41;5007604;28;8774;-60
2022/06/02 01:36:25;;;;;;;;;;;;;;;25.50;42.03;94304.94;5017414;28;9136;-60
2022/06/02 01:39:24;;;;;;;;;;;;;;;25.49;41.41;94315.19;4991810;28;7268;-60
2022/06/02 01:42:42;;;;;;;;;;;;;;;25.49;42.29;94311.72;5008199;28;7235;-60
2022/06/02 01:45:29;;;;;;;;;;;;;;;25.46;42.21;94305.22;5006387;28;7358;-60
2022/06/02 01:48:23;;;;;;;;;;;;;;;25.49;41.82;94301.41;5014357;28;8996;-60
2022/06/02 01:51:07;;;;;;;;;;;;;;;25.46;42.20;94299.72;5017055;28;8831;-60
2022/06/02 01:54:13;;;;;;;;;;;;;;;25.47;41.61;94297.72;4988082;28;7262;-60
2022/06/02 01:57:17;;;;;;;;;;;;;;;25.47;42.24;94303.94;4985249;28;7273;-60
2022/06/02 02:00:03;;;;;;;;;;;;;;;25.46;41.89;94294.19;4998943;28;9125;-60
2022/06/02 02:02:41;;;;;;;;;;;;;;;25.45;42.09;94292.69;4982670;28;9099;-60
2022/06/02 02:05:28;;;;;;;;;;;;;;;25.45;42.40;94291.97;4977743;28;7166;-66
2022/06/02 02:08:23;;;;;;;;;;;;;;;25.44;42.37;94291.22;5002122;28;8216;-66
2022/06/02 02:11:05;;;;;;;;;;;;;;;25.45;41.99;94298.19;4993379;28;9134;-66
2022/06/02 02:14:15;;;;;;;;;;;;;;;25.45;42.20;94289.22;5012352;28;7657;-66
2022/06/02 02:20:52;;;;;;;;;;;;;;;25.43;42.39;94282.19;4982413;28;7209;-65
2022/06/02 02:23:47;;;;;;;;;;;;;;;25.44;42.18;94293.97;5006813;28;7242;-65
2022/06/02 02:27:06;;;;;;;;;;;;;;;25.42;41.44;94286.19;4984301;28;8940;-65
2022/06/02 02:29:52;;;;;;;;;;;;;;;25.43;42.35;94290.47;4978801;28;7304;-65
2022/06/02 02:32:19;;;;;;;;;;;;;;;25.42;42.06;94290.97;4987138;28;9760;-65
2022/06/02 02:35:04;;;;;;;;;;;;;;;25.43;41.28;94286.94;4975370;28;7011;-66
2022/06/02 02:37:56;;;;;;;;;;;;;;;25.41;42.17;94287.44;4974148;28;9188;-65
2022/06/02 02:40:32;;;;;;;;;;;;;;;25.41;41.59;94292.94;4974434;28;7327;-65
2022/06/02 02:43:04;;;;;;;;;;;;;;;25.41;41.53;94284.69;4966254;28;7067;-66
2022/06/02 02:45:51;;;;;;;;;;;;;;;25.43;41.51;94292.47;4972234;28;9146;-66
2022/06/02 02:48:30;;;;;;;;;;;;;;;25.43;41.93;94297.97;4975960;28;6873;-66
2022/06/02 02:51:35;;;;;;;;;;;;;;;25.43;41.50;94297.97;4972180;28;7317;-66
2022/06/02 02:54:41;;;;;;;;;;;;;;;25.40;41.27;94291.44;4974917;28;9111;-66
2022/06/02 02:57:31;;;;;;;;;;;;;;;25.41;42.12;94289.44;4984033;28;9131;-65
2022/06/02 03:00:21;;;;;;;;;;;;;;;25.41;41.92;94289.44;4985032;28;8944;-65
2022/06/02 03:03:26;;;;;;;;;;;;;;;25.38;41.45;94293.97;4987520;28;8767;-65
2022/06/02 03:06:12;;;;;;;;;;;;;;;25.39;42.36;94291.97;4997212;28;8507;-66
2022/06/02 03:09:03;;;;;;;;;;;;;;;25.39;42.13;94286.44;4995593;28;7164;-66
2022/06/02 03:12:04;;;;;;;;;;;;;;;25.40;41.27;94276.94;4991937;28;9437;-66
2022/06/02 03:14:59;;;;;;;;;;;;;;;25.39;41.52;94276.19;4981918;28;7071;-66
2022/06/02 03:18:03;;;;;;;;;;;;;;;25.40;42.03;94287.97;5005836;28;7156;-65
2022/06/02 03:20:46;;;;;;;;;;;;;;;25.38;42.05;94282.22;4981615;28;7261;-66
2022/06/02 03:23:39;;;;;;;;;;;;;;;25.38;41.37;94274.69;4975418;28;9255;-66
2022/06/02 03:26:47;;;;;;;;;;;;;;;25.38;41.98;94268.47;5004435;28;7272;-66
2022/06/02 03:29:43;;;;;;;;;;;;;;;25.39;41.12;94269.94;4931647;29;8218;-66
2022/06/02 03:32:47;;;;;;;;;;;;;;;25.38;41.81;94271.22;4934953;28;9326;-66
2022/06/02 03:35:26;;;;;;;;;;;;;;;25.38;41.38;94266.44;4893088;29;8761;-66
2022/06/02 03:38:13;;;;;;;;;;;;;;;25.39;41.87;94264.44;4895557;29;9506;-66
2022/06/02 03:41:01;;;;;;;;;;;;;;;25.39;42.19;94258.91;4903652;29;7645;-66
2022/06/02 03:44:11;;;;;;;;;;;;;;;25.37;41.87;94255.94;4899603;29;7286;-66
2022/06/02 03:46:47;;;;;;;;;;;;;;;25.37;42.19;94266.94;4889578;29;8772;-66
2022/06/02 03:49:34;;;;;;;;;;;;;;;25.36;41.90;94262.69;4921306;29;9082;-66
2022/06/02 03:52:37;;;;;;;;;;;;;;;25.36;42.32;94265.44;4891815;29;7466;-66
2022/06/02 03:55:35;;;;;;;;;;;;;;;25.34;41.75;94268.72;4904111;29;7165;-66
2022/06/02 03:58:12;;;;;;;;;;;;;;;25.35;41.94;94277.72;4900913;29;7469;-66
2022/06/02 04:00:56;;;;;;;;;;;;;;;25.35;41.44;94272.97;4899995;29;7248;-66
2022/06/02 04:03:31;;;;;;;;;;;;;;;25.35;41.98;94272.97;4861999;29;7865;-65
2022/06/02 04:06:09;;;;;;;;;;;;;;;25.34;41.35;94278.97;4884974;29;8701;-66
2022/06/02 04:08:37;;;;;;;;;;;;;;;25.35;41.88;94274.97;4876590;29;9439;-65
2022/06/02 04:11:11;;;;;;;;;;;;;;;25.34;41.31;94284.47;4877648;29;9392;-65
2022/06/02 04:14:01;;;;;;;;;;;;;;;25.34;41.95;94285.22;4932589;28;9468;-66
2022/06/02 04:17:01;;;;;;;;;;;;;;;25.34;41.41;94289.97;4936065;28;7201;-66
2022/06/02 04:23:42;;;;;;;;;;;;;;;25.33;42.17;94294.00;4965941;28;7134;-66
2022/06/02 04:26:31;;;;;;;;;;;;;;;25.33;41.90;94305.03;4961181;28;7378;-66
2022/06/02 04:28:58;;;;;;;;;;;;;;;25.32;41.30;94303.50;4961951;28;7330;-66
2022/06/02 04:35:35;;;;;;;;;;;;;;;25.35;42.09;94311.53;4950338;28;7019;-66
2022/06/02 04:38:09;;;;;;;;;;;;;;;25.37;41.30;94322.00;4928784;29;8781;-66
2022/06/02 04:41:12;;;;;;;;;;;;;;;25.37;41.96;94327.53;4934239;29;9385;-66
2022/06/02 04:44:17;;;;;;;;;;;;;;;25.34;44.12;94323.78;4935386;29;7038;-65
2022/06/02 04:47:09;;;;;;;;;;;;;;;25.29;45.81;94315.56;4945890;29;8875;-65
2022/06/02 04:49:56;;;;;;;;;;;;;;;25.30;42.89;94295.78;4943058;28;7464;-66
2022/06/02 04:52:42;;;;;;;;;;;;;;;25.32;42.05;94290.50;4940329;28;9091;-66
2022/06/02 04:55:41;;;;;;;;;;;;;;;25.29;42.54;94283.25;4939622;28;7354;-66
2022/06/02 04:58:50;;;;;;;;;;;;;;;25.30;42.80;94289.53;4942881;28;9097;-66
2022/06/02 05:01:53;;;;;;;;;;;;;;;25.31;43.16;94291.03;4962717;28;9071;-66
2022/06/02 05:04:58;;;;;;;;;;;;;;;25.30;43.16;94279.25;4963157;28;7620;-66
2022/06/02 05:08:17;;;;;;;;;;;;;;;25.30;42.48;94273.00;4966061;28;7428;-65
2022/06/02 05:11:07;;;;;;;;;;;;;;;25.28;43.18;94297.53;4947456;28;9402;-65
2022/06/02 05:14:11;;;;;;;;;;;;;;;25.28;42.68;94308.56;4971153;28;7267;-65
2022/06/02 05:17:09;;;;;;;;;;;;;;;25.28;42.89;94314.81;4953627;28;9349;-65
2022/06/02 05:20:07;;;;;;;;;;;;;;;25.24;43.38;94310.84;4978197;28;9216;-65
2022/06/02 05:22:52;;;;;;;;;;;;;;;25.21;43.41;94301.59;4964824;28;8762;-65
2022/06/02 05:25:38;;;;;;;;;;;;;;;25.23;43.28;94304.56;4978537;28;7286;-65
2022/06/02 05:32:27;;;;;;;;;;;;;;;25.23;42.99;94306.56;4946809;28;9514;-65
2022/06/02 05:35:18;;;;;;;;;;;;;;;25.24;43.57;94316.34;4951627;28;7208;-65
2022/06/02 05:38:07;;;;;;;;;;;;;;;25.22;43.50;94308.59;4935681;28;7155;-65
2022/06/02 05:40:48;;;;;;;;;;;;;;;25.23;43.76;94312.06;4952665;28;7473;-65
2022/06/02 05:43:38;;;;;;;;;;;;;;;25.21;43.39;94314.59;4941805;28;8978;-65
2022/06/02 05:46:13;;;;;;;;;;;;;;;25.24;43.46;94321.84;4942599;28;8751;-65
2022/06/02 05:48:58;;;;;;;;;;;;;;;25.25;42.98;94323.34;4955595;28;7294;-65
2022/06/02 05:51:48;;;;;;;;;;;;;;;25.25;42.98;94332.34;4952473;28;7341;-65
2022/06/02 05:54:52;;;;;;;;;;;;;;;25.25;43.43;94339.88;4960137;28;8773;-65
2022/06/02 05:57:55;;;;;;;;;;;;;;;25.25;43.33;94340.59;4950813;28;9795;-65
2022/06/02 06:00:49;;;;;;;;;;;;;;;25.23;43.34;94345.88;4961872;28;9373;-64
2022/06/02 06:03:52;;;;;;;;;;;;;;;25.25;42.84;94345.38;4943538;28;7293;-64
2022/06/02 06:06:47;;;;;;;;;;;;;;;25.23;43.46;94350.63;4973541;28;8165;-65
2022/06/02 06:09:56;;;;;;;;;;;;;;;25.23;43.02;94353.38;4999897;28;7226;-65
2022/06/02 06:12:43;;;;;;;;;;;;;;;25.23;43.65;94345.13;5002318;28;9110;-65
2022/06/02 06:19:24;;;;;;;;;;;;;;;25.24;43.52;94357.63;4943508;28;7091;-65
2022/06/02 06:22:00;;;;;;;;;;;;;;;25.24;43.10;94361.13;4937131;28;7270;-65
2022/06/02 06:25:07;;;;;;;;;;;;;;;25.25;42.54;94370.88;4934019;28;9487;-65
2022/06/02 06:27:45;;;;;;;;;;;;;;;25.24;43.02;94376.91;4951241;28;7875;-65
2022/06/02 06:30:48;;;;;;;;;;;;;;;25.24;42.47;94368.63;4943962;28;7519;-65
2022/06/02 06:33:41;;;;;;;;;;;;;;;25.24;43.51;94374.91;4945690;28;8891;-65
2022/06/02 06:36:18;;;;;;;;;;;;;;;25.23;43.07;94376.16;4949016;28;9458;-65
2022/06/02 06:39:05;;;;;;;;;;;;;;;25.22;42.78;94371.16;4942738;28;7042;-65
2022/06/02 06:48:31;;;;;;;;;;;;;;;25.23;42.84;94381.66;4932080;29;9490;-65
2022/06/02 06:51:16;;;;;;;;;;;;;;;25.23;42.76;94367.13;4913221;29;9367;-65
2022/06/02 06:53:45;;;;;;;;;;;;;;;25.25;42.30;94375.66;4954285;28;7040;-65
2022/06/02 06:56:43;;;;;;;;;;;;;;;25.24;42.52;94371.41;4965464;28;9211;-65
2022/06/02 06:59:55;;;;;;;;;;;;;;;25.25;42.30;94372.91;4961711;28;7236;-65
2022/06/02 07:02:58;;;;;;;;;;;;;;;25.25;43.09;94376.38;4952159;28;8199;-65
2022/06/02 07:05:54;;;;;;;;;;;;;;;25.24;43.09;94374.16;4970459;28;9139;-65
2022/06/02 07:08:27;;;;;;;;;;;;;;;25.23;42.84;94370.63;4968176;28;7402;-65
2022/06/02 07:14:47;;;;;;;;;;;;;;;25.22;43.03;94376.66;4966285;28;7231;-66
2022/06/02 07:18:06;;;;;;;;;;;;;;;25.22;42.53;94376.66;4949361;28;7542;-65
2022/06/02 07:21:08;;;;;;;;;;;;;;;25.21;43.12;94389.66;4877276;29;7480;-65
2022/06/02 07:23:56;;;;;;;;;;;;;;;25.22;42.37;94382.94;4899435;29;7307;-65
2022/06/02 07:26:48;;;;;;;;;;;;;;;25.23;43.03;94387.16;4890653;29;7538;-65
2022/06/02 07:29:29;;;;;;;;;;;;;;;25.25;42.94;94375.66;4925067;29;7253;-65
2022/06/02 07:32:32;;;;;;;;;;;;;;;25.24;42.31;94380.41;4914818;29;9382;-65
2022/06/02 07:35:24;;;;;;;;;;;;;;;25.25;42.87;94378.41;4903935;29;7229;-65
2022/06/02 07:38:16;;;;;;;;;;;;;;;25.26;42.91;94390.91;4884086;29;7207;-65
2022/06/02 07:40:57;;;;;;;;;;;;;;;25.26;42.99;94393.66;4884967;29;7303;-65
2022/06/02 07:43:44;;;;;;;;;;;;;;;25.24;42.95;94385.91;4877293;29;7250;-65
2022/06/02 07:46:54;;;;;;;;;;;;;;;25.24;41.97;94379.66;4888993;29;7337;-65
2022/06/02 07:49:50;;;;;;;;;;;;;;;25.23;42.96;94378.16;4883949;29;7368;-65
2022/06/02 07:52:23;;;;;;;;;;;;;;;25.21;42.85;94369.66;4925898;29;7347;-65
2022/06/02 07:55:05;;;;;;;;;;;;;;;25.21;42.86;94370.41;4928576;29;7375;-65
2022/06/02 07:57:50;;;;;;;;;;;;;;;25.20;42.41;94373.66;4962147;28;9473;-65
2022/06/02 08:00:21;;;;;;;;;;;;;;;25.22;42.34;94376.66;5002252;28;7202;-65
2022/06/02 08:03:29;;;;;;;;;;;;;;;25.24;42.86;94379.66;4988855;28;7534;-66
2022/06/02 08:06:33;;;;;;;;;;;;;;;25.21;42.70;94386.16;4983439;28;8778;-65
2022/06/02 08:09:29;;;;;;;;;;;;;;;25.21;43.07;94386.16;5013995;28;7854;-64
2022/06/02 08:12:11;;;;;;;;;;;;;;;25.19;42.68;94378.41;4986158;28;8773;-65
2022/06/02 08:14:39;;;;;;;;;;;;;;;25.21;42.79;94388.91;4994724;28;7255;-65
2022/06/02 08:17:16;;;;;;;;;;;;;;;25.20;42.69;94388.19;4987280;28;9365;-66
2022/06/02 08:20:21;;;;;;;;;;;;;;;25.21;43.17;94397.16;4984063;28;9359;-65
2022/06/02 08:23:25;;;;;;;;;;;;;;;25.23;42.64;94389.16;5017862;28;9056;-65
2022/06/02 08:26:11;;;;;;;;;;;;;;;25.23;42.22;94394.66;4994022;28;7016;-65
2022/06/02 08:29:32;;;;;;;;;;;;;;;25.21;43.25;94397.16;4985879;28;9062;-65
2022/06/02 08:32:25;;;;;;;;;;;;;;;25.19;43.03;94400.44;4984826;28;8726;-64
2022/06/02 08:35:28;;;;;;;;;;;;;;;25.19;42.84;94397.69;4976773;28;7393;-64
2022/06/02 08:38:19;;;;;;;;;;;;;;;25.21;42.88;94397.16;4970126;28;7005;-64
2022/06/02 08:41:33;;;;;;;;;;;;;;;25.20;42.22;94401.94;4984858;28;9102;-64
2022/06/02 08:44:58;;;;;;;;;;;;;;;25.22;42.73;94388.44;4986630;28;9799;-64
2022/06/02 08:48:04;;;;;;;;;;;;;;;25.22;42.87;94404.19;4976406;28;9032;-64
2022/06/02 08:51:08;;;;;;;;;;;;;;;25.23;42.40;94409.19;4969445;28;7194;-64
2022/06/02 08:53:56;;;;;;;;;;;;;;;25.24;42.54;94407.19;4988490;28;7590;-64
2022/06/02 08:56:28;;;;;;;;;;;;;;;25.24;42.54;94409.94;4996481;28;7430;-63
2022/06/02 08:59:40;;;;;;;;;;;;;;;25.26;43.46;94407.41;4983861;28;9391;-64
2022/06/02 09:02:38;;;;;;;;;;;;;;;25.24;42.69;94396.16;4988912;28;9473;-64
2022/06/02 09:05:45;;;;;;;;;;;;;;;25.26;43.40;94410.16;5008250;28;7232;-64
2022/06/02 09:08:51;;;;;;;;;;;;;;;25.27;43.23;94406.19;4984235;28;9273;-63
2022/06/02 09:11:19;;;;;;;;;;;;;;;25.28;43.26;94404.91;5019996;28;7524;-63
2022/06/02 09:14:23;;;;;;;;;;;;;;;25.30;42.57;94405.13;5005426;28;7199;-64
2022/06/02 09:17:35;;;;;;;;;;;;;;;25.29;43.34;94398.16;4983345;28;7290;-64
2022/06/02 09:20:15;;;;;;;;;;;;;;;25.28;42.60;94400.16;4980945;28;7042;-64
2022/06/02 09:22:54;;;;;;;;;;;;;;;25.30;42.92;94408.66;5013060;28;9540;-64
2022/06/02 09:25:37;;;;;;;;;;;;;;;25.29;43.50;94403.66;4984931;28;7361;-64
2022/06/02 09:28:26;;;;;;;;;;;;;;;25.30;42.67;94408.66;5013154;28;9146;-64
2022/06/02 09:31:13;;;;;;;;;;;;;;;25.31;42.70;94412.16;5012144;28;7074;-64
2022/06/02 09:34:10;;;;;;;;;;;;;;;25.31;42.49;94409.41;5000768;28;7199;-64
2022/06/02 09:36:45;;;;;;;;;;;;;;;25.33;43.20;94417.91;5014235;28;7087;-64
2022/06/02 09:39:49;;;;;;;;;;;;;;;25.32;43.21;94416.41;4997544;28;7219;-64
2022/06/02 09:42:40;;;;;;;;;;;;;;;25.32;43.38;94424.66;5006195;28;7095;-64
2022/06/02 09:45:36;;;;;;;;;;;;;;;25.32;43.30;94424.66;5006077;28;7080;-63
2022/06/02 09:48:19;;;;;;;;;;;;;;;25.28;42.89;94419.44;4983144;28;8110;-63
2022/06/02 09:51:06;;;;;;;;;;;;;;;25.33;42.72;94415.16;5028659;28;8743;-64
2022/06/02 09:53:42;;;;;;;;;;;;;;;25.34;42.93;94430.41;5016215;28;9389;-64
2022/06/02 09:56:44;;;;;;;;;;;;;;;25.34;43.50;94428.41;4991945;28;9256;-64
2022/06/02 09:59:36;;;;;;;;;;;;;;;25.34;43.37;94430.41;4990019;28;7252;-64
2022/06/02 10:02:23;;;;;;;;;;;;;;;25.35;42.88;94432.66;4984450;28;7277;-64
2022/06/02 10:05:18;;;;;;;;;;;;;;;25.37;43.04;94432.16;4990676;28;9136;-64
2022/06/02 10:08:04;;;;;;;;;;;;;;;25.35;43.19;94435.41;5018163;28;7475;-64
2022/06/02 10:11:38;;;;;;;;;;;;;;;25.35;43.58;94429.91;5014397;28;9398;-63
2022/06/02 10:14:55;;;;;;;;;;;;;;;25.36;43.43;94428.63;4965290;28;7120;-64
2022/06/02 10:17:34;;;;;;;;;;;;;;;25.38;43.62;94430.91;4951382;28;9554;-64
2022/06/02 10:20:22;;;;;;;;;;;;;;;25.41;43.17;94432.63;4942977;28;9139;-64
2022/06/02 10:23:12;;;;;;;;;;;;;;;25.41;43.36;94429.88;4929982;28;7560;-64
2022/06/02 10:26:03;;;;;;;;;;;;;;;25.42;42.62;94428.66;4943086;28;7228;-64
2022/06/02 10:32:38;;;;;;;;;;;;;;;25.42;43.64;94421.13;4948364;28;7401;-64
2022/06/02 10:35:15;;;;;;;;;;;;;;;25.43;43.47;94421.88;4949954;28;8830;-64
2022/06/02 10:37:42;;;;;;;;;;;;;;;25.41;43.44;94422.34;4935557;28;7286;-64
2022/06/02 10:40:22;;;;;;;;;;;;;;;25.42;43.64;94418.38;4936983;28;7693;-64
2022/06/02 10:43:25;;;;;;;;;;;;;;;25.45;42.94;94410.38;4951144;28;9680;-63
2022/06/02 10:46:26;;;;;;;;;;;;;;;25.45;43.78;94419.34;4946490;28;7300;-64
2022/06/02 10:49:13;;;;;;;;;;;;;;;25.44;43.70;94415.13;4932497;28;7918;-64
2022/06/02 10:51:42;;;;;;;;;;;;;;;25.47;43.26;94413.34;4927519;28;9097;-63
2022/06/02 10:54:26;;;;;;;;;;;;;;;25.47;43.23;94422.34;5010482;28;7066;-64
2022/06/02 10:56:52;;;;;;;;;;;;;;;25.49;43.62;94422.59;5013610;28;7248;-64
2022/06/02 10:59:59;;;;;;;;;;;;;;;25.50;43.25;94415.84;5018082;28;7331;-64
2022/06/02 11:03:22;;;;;;;;;;;;;;;25.52;43.29;94410.56;4994192;28;9060;-64
2022/06/02 11:06:35;;;;;;;;;;;;;;;25.54;43.86;94415.56;4989197;28;9257;-65
2022/06/02 11:09:34;;;;;;;;;;;;;;;25.54;43.70;94408.03;4997720;28;7349;-63
2022/06/02 11:12:13;;;;;;;;;;;;;;;25.54;43.39;94408.03;4990820;28;7481;-64
2022/06/02 11:18:50;;;;;;;;;;;;;;;25.58;42.98;94402.28;4986071;28;6993;-64
2022/06/02 11:21:45;;;;;;;;;;;;;;;25.58;43.83;94408.50;4981841;28;7253;-64
2022/06/02 11:24:46;;;;;;;;;;;;;;;25.60;43.75;94408.03;4985666;28;9095;-64
2022/06/02 11:27:27;;;;;;;;;;;;;;;25.61;43.92;94409.50;4975583;28;8148;-64
2022/06/02 11:30:16;;;;;;;;;;;;;;;25.62;43.01;94406.22;4965853;28;7506;-64
2022/06/02 11:33:07;;;;;;;;;;;;;;;25.64;43.85;94403.00;4973990;28;9334;-63
2022/06/02 11:36:07;;;;;;;;;;;;;;;25.67;43.60;94399.94;4965797;28;7280;-64
2022/06/02 11:39:14;;;;;;;;;;;;;;;25.70;43.20;94396.19;4952791;28;7246;-63
2022/06/02 11:42:08;;;;;;;;;;;;;;;25.71;43.71;94392.16;4944729;28;7160;-63
2022/06/02 11:45:00;;;;;;;;;;;;;;;25.73;43.35;94388.91;4956238;28;9102;-64
2022/06/02 11:47:52;;;;;;;;;;;;;;;25.71;44.24;94383.16;4944684;28;9010;-64
2022/06/02 11:50:27;;;;;;;;;;;;;;;25.75;44.09;94389.88;4952050;28;7240;-63
2022/06/02 11:53:05;;;;;;;;;;;;;;;25.78;43.68;94388.09;4929543;28;9219;-64
2022/06/02 11:55:46;;;;;;;;;;;;;;;25.78;43.81;94388.09;5012860;28;9088;-64
2022/06/02 11:58:49;;;;;;;;;;;;;;;25.79;45.52;94386.84;4991234;28;9302;-64
2022/06/02 12:01:25;;;;;;;;;;;;;;;25.80;44.80;94385.56;4978907;28;7184;-64
2022/06/02 12:04:39;;;;;;;;;;;;;;;25.80;43.70;94380.06;4980490;28;6993;-64
2022/06/02 12:07:48;;;;;;;;;;;;;;;25.80;44.16;94385.56;4987923;28;7107;-64
2022/06/02 12:10:52;;;;;;;;;;;;;;;25.81;44.18;94382.34;5002867;28;7001;-64
2022/06/02 12:13:56;;;;;;;;;;;;;;;25.82;43.42;94381.06;5009367;28;7279;-64
2022/06/02 12:17:00;;;;;;;;;;;;;;;25.86;43.29;94372.53;4974002;28;7572;-64
2022/06/02 12:23:05;;;;;;;;;;;;;;;25.94;43.82;94374.22;4984198;28;8292;-64
2022/06/02 12:26:20;;;;;;;;;;;;;;;25.95;43.89;94370.19;4980034;28;7266;-64
2022/06/02 12:29:12;;;;;;;;;;;;;;;25.96;43.48;94365.41;5021153;28;9078;-64
2022/06/02 12:32:06;;;;;;;;;;;;;;;25.95;43.02;94367.44;5023511;28;7339;-64
2022/06/02 12:34:43;;;;;;;;;;;;;;;25.90;43.88;94376.47;5014226;28;9043;-64
2022/06/02 12:37:24;;;;;;;;;;;;;;;25.88;43.78;94370.72;5009712;28;7860;-64
2022/06/02 12:40:07;;;;;;;;;;;;;;;25.89;43.58;94365.97;5018154;28;7009;-64
2022/06/02 12:43:12;;;;;;;;;;;;;;;25.90;43.20;94362.69;5023614;28;6923;-64
2022/06/02 12:45:49;;;;;;;;;;;;;;;25.92;44.00;94365.72;5018730;28;10372;-64
2022/06/02 12:48:36;;;;;;;;;;;;;;;25.95;42.79;94355.66;5002106;28;9121;-64
2022/06/02 12:51:10;;;;;;;;;;;;;;;25.95;43.42;94363.91;4996320;28;9139;-63
2022/06/02 12:53:58;;;;;;;;;;;;;;;25.92;42.64;94359.44;5005588;28;7054;-63
2022/06/02 12:56:39;;;;;;;;;;;;;;;25.91;42.99;94364.22;5008135;28;7256;-64
2022/06/02 12:59:07;;;;;;;;;;;;;;;25.94;43.37;94362.44;5029468;28;9518;-64
2022/06/02 13:02:07;;;;;;;;;;;;;;;25.95;43.01;94356.41;5000670;28;9295;-63
2022/06/02 13:05:11;;;;;;;;;;;;;;;26.00;43.00;94347.34;4996046;28;7089;-64
2022/06/02 13:08:10;;;;;;;;;;;;;;;26.01;43.31;94356.38;4980017;28;7233;-63
2022/06/02 13:11:13;;;;;;;;;;;;;;;26.00;43.13;94357.63;4989502;28;8995;-64
2022/06/02 13:18:02;;;;;;;;;;;;;;;25.96;43.43;94357.91;4912019;29;7156;-64
2022/06/02 13:21:06;;;;;;;;;;;;;;;25.97;43.21;94350.38;4898094;29;9503;-64
2022/06/02 13:23:46;;;;;;;;;;;;;;;25.95;42.51;94353.66;4894602;29;7010;-64
2022/06/02 13:26:16;;;;;;;;;;;;;;;25.97;43.43;94351.13;4894346;29;7238;-64
2022/06/02 13:29:04;;;;;;;;;;;;;;;25.96;42.47;94357.91;4888915;29;9211;-63
2022/06/02 13:35:14;;;;;;;;;;;;;;;25.95;43.52;94350.13;4910706;29;7339;-63
2022/06/02 13:37:52;;;;;;;;;;;;;;;25.95;43.29;94342.63;4891752;29;9899;-64
2022/06/02 13:40:45;;;;;;;;;;;;;;;25.95;43.50;94337.13;4893642;29;9003;-63
2022/06/02 13:43:46;;;;;;;;;;;;;;;25.96;43.51;94341.38;4906499;29;7233;-63
2022/06/02 13:46:52;;;;;;;;;;;;;;;25.97;42.87;94342.84;4839532;29;9468;-64
2022/06/02 13:49:35;;;;;;;;;;;;;;;25.98;42.76;94335.34;4864423;29;7264;-63
2022/06/02 13:52:43;;;;;;;;;;;;;;;26.02;42.69;94335.81;4875951;29;8730;-64
2022/06/02 13:59:16;;;;;;;;;;;;;;;25.99;42.60;94336.84;4905741;29;7414;-63
2022/06/02 14:02:06;;;;;;;;;;;;;;;26.00;43.54;94332.81;4897232;29;7302;-64
2022/06/02 14:05:01;;;;;;;;;;;;;;;26.00;42.48;94330.81;4898955;29;7097;-64
2022/06/02 14:07:29;;;;;;;;;;;;;;;26.03;42.97;94326.28;4897185;29;9452;-64
2022/06/02 14:10:44;;;;;;;;;;;;;;;26.07;43.90;94324.00;4932133;28;7198;-64
2022/06/02 14:13:34;;;;;;;;;;;;;;;26.12;43.15;94323.22;4927072;28;7236;-64
2022/06/02 14:16:32;;;;;;;;;;;;;;;26.14;42.83;94321.44;4914467;29;8765;-64
2022/06/02 14:19:20;;;;;;;;;;;;;;;26.16;42.86;94321.66;4931017;28;7837;-64
2022/06/02 14:22:15;;;;;;;;;;;;;;;26.19;43.32;94321.91;4943290;28;9120;-64
2022/06/02 14:25:13;;;;;;;;;;;;;;;26.20;43.07;94334.41;4996463;28;7256;-64
2022/06/02 14:27:52;;;;;;;;;;;;;;;26.24;43.77;94332.13;4990346;28;7117;-63
2022/06/02 14:30:36;;;;;;;;;;;;;;;26.27;42.55;94331.09;4996156;28;7332;-63
2022/06/02 14:33:46;;;;;;;;;;;;;;;26.28;43.04;94330.56;4983068;28;7274;-64
2022/06/02 14:36:27;;;;;;;;;;;;;;;26.28;42.81;94325.06;4982806;28;7349;-64
2022/06/02 14:39:29;;;;;;;;;;;;;;;26.30;43.52;94330.03;5004712;28;9137;-64
2022/06/02 14:45:32;;;;;;;;;;;;;;;26.31;42.83;94326.03;4991474;28;7017;-64
2022/06/02 14:48:07;;;;;;;;;;;;;;;26.34;42.98;94327.78;5022014;28;9057;-63
2022/06/02 14:51:15;;;;;;;;;;;;;;;26.34;43.39;94327.78;5014891;28;7371;-64
2022/06/02 14:54:03;;;;;;;;;;;;;;;26.36;42.36;94325.25;5009058;28;7470;-64
2022/06/02 14:56:34;;;;;;;;;;;;;;;26.36;42.77;94328.00;4976566;28;7231;-64
2022/06/02 14:59:39;;;;;;;;;;;;;;;26.36;43.09;94320.44;5025959;28;9151;-64
2022/06/02 15:02:31;;;;;;;;;;;;;;;26.38;42.67;94331.72;5015657;28;8751;-64
2022/06/02 15:05:12;;;;;;;;;;;;;;;26.40;42.22;94320.19;4971920;28;8921;-64
2022/06/02 15:08:30;;;;;;;;;;;;;;;26.44;42.44;94342.69;4956288;28;9280;-64
2022/06/02 15:14:47;;;;;;;;;;;;;;;26.46;42.35;94327.13;4905082;29;9162;-65
2022/06/02 15:17:52;;;;;;;;;;;;;;;26.43;42.18;94333.66;4876882;29;9103;-65
2022/06/02 15:20:58;;;;;;;;;;;;;;;26.44;42.61;94328.91;4875548;29;7667;-65
2022/06/02 15:24:09;;;;;;;;;;;;;;;26.47;42.68;94316.84;4876774;29;8813;-65
2022/06/02 15:26:43;;;;;;;;;;;;;;;26.46;42.10;94323.63;4877543;29;7029;-65
2022/06/02 15:29:13;;;;;;;;;;;;;;;26.46;42.11;94323.63;4876668;29;9178;-64
2022/06/02 15:32:04;;;;;;;;;;;;;;;26.45;42.98;94328.38;4875591;29;9117;-65
2022/06/02 15:35:17;;;;;;;;;;;;;;;26.47;42.15;94319.59;4873146;29;7331;-65
2022/06/02 15:37:55;;;;;;;;;;;;;;;26.44;42.18;94326.16;4860983;29;8710;-64
2022/06/02 15:40:29;;;;;;;;;;;;;;;26.45;42.42;94320.09;4851920;29;9294;-65
2022/06/02 15:43:25;;;;;;;;;;;;;;;26.47;42.76;94316.84;4926303;29;7282;-65
2022/06/02 15:46:13;;;;;;;;;;;;;;;26.51;41.75;94320.06;4949412;28;9138;-64
2022/06/02 15:49:22;;;;;;;;;;;;;;;26.50;42.18;94311.03;4948631;28;9039;-65
2022/06/02 15:52:03;;;;;;;;;;;;;;;26.47;41.92;94308.56;4948117;28;7135;-65
2022/06/02 15:54:54;;;;;;;;;;;;;;;26.48;42.67;94307.28;4980979;28;8401;-65
2022/06/02 15:57:48;;;;;;;;;;;;;;;26.50;42.45;94315.78;5006281;28;7664;-64
2022/06/02 16:00:42;;;;;;;;;;;;;;;26.50;42.31;94304.75;4995127;28;9130;-64
2022/06/02 16:03:55;;;;;;;;;;;;;;;26.53;42.39;94300.97;4987856;28;9097;-64
2022/06/02 16:06:46;;;;;;;;;;;;;;;26.53;41.85;94298.22;4981582;28;7196;-64
2022/06/02 16:13:03;;;;;;;;;;;;;;;26.56;42.30;94289.66;4990275;28;8974;-64